createdAt,value
2023-03-30T00:00:56.774Z,14.80
2023-03-30T00:03:23.765Z,14.80
2023-03-30T00:05:52.048Z,14.90
2023-03-30T00:08:19.156Z,14.70
2023-03-30T00:10:46.114Z,14.70
2023-03-30T00:13:13.170Z,14.70
2023-03-30T00:15:41.214Z,14.60
2023-03-30T00:18:09.453Z,14.70
2023-03-30T00:20:37.769Z,14.60
2023-03-30T00:23:04.556Z,14.60
2023-03-30T00:25:31.361Z,14.50
2023-03-30T00:27:58.093Z,14.40
2023-03-30T00:30:24.829Z,14.40
2023-03-30T00:32:51.796Z,14.50
2023-03-30T00:35:19.621Z,14.40
2023-03-30T00:37:49.511Z,14.40
2023-03-30T00:40:20.700Z,14.40
2023-03-30T00:42:47.466Z,14.30
2023-03-30T00:45:19.251Z,14.20
2023-03-30T00:48:04.706Z,14.20
2023-03-30T00:50:43.214Z,14.30
2023-03-30T00:53:16.373Z,14.40
2023-03-30T00:55:43.788Z,14.40
2023-03-30T00:58:11.210Z,14.30
2023-03-30T01:00:38.876Z,14.40
2023-03-30T01:03:11.795Z,14.30
2023-03-30T01:05:39.477Z,14.20
2023-03-30T01:08:09.124Z,14.20
2023-03-30T01:10:35.866Z,14.20
2023-03-30T01:13:02.703Z,14.10
2023-03-30T01:15:33.528Z,14.00
2023-03-30T01:18:09.351Z,13.90
2023-03-30T01:20:54.979Z,13.90
2023-03-30T01:23:27.401Z,13.70
2023-03-30T01:26:20.606Z,13.80
2023-03-30T01:28:51.847Z,13.80
2023-03-30T01:31:21.925Z,13.70
2023-03-30T01:33:57.732Z,13.80
2023-03-30T01:36:39.518Z,13.80
2023-03-30T01:39:15.875Z,13.70
2023-03-30T01:41:52.479Z,13.80
2023-03-30T01:44:19.229Z,13.80
2023-03-30T01:46:49.861Z,13.80
2023-03-30T01:49:34.818Z,13.90
2023-03-30T01:52:05.376Z,13.90
2023-03-30T01:54:37.219Z,13.90
2023-03-30T01:57:10.677Z,13.80
2023-03-30T01:59:43.542Z,13.60
2023-03-30T02:02:12.035Z,13.50
2023-03-30T02:04:40.409Z,13.30
2023-03-30T02:07:09.095Z,13.30
2023-03-30T02:09:37.303Z,13.40
2023-03-30T02:12:04.323Z,13.40
2023-03-30T02:14:32.672Z,13.60
2023-03-30T02:17:06.486Z,13.70
2023-03-30T02:19:33.962Z,13.80
2023-03-30T02:22:01.210Z,13.70
2023-03-30T02:24:28.858Z,13.70
2023-03-30T02:26:55.943Z,13.70
2023-03-30T02:29:23.015Z,13.70
2023-03-30T02:31:51.161Z,13.80
2023-03-30T02:34:33.730Z,13.80
2023-03-30T02:37:19.238Z,13.80
2023-03-30T02:39:59.072Z,13.80
2023-03-30T02:42:44.393Z,13.80
2023-03-30T02:45:14.140Z,13.80
2023-03-30T02:47:47.137Z,13.90
2023-03-30T02:50:22.181Z,13.90
2023-03-30T02:52:57.117Z,13.90
2023-03-30T02:55:45.994Z,14.00
2023-03-30T02:58:12.879Z,14.00
2023-03-30T03:00:48.930Z,13.90
2023-03-30T03:03:24.676Z,14.00
2023-03-30T03:05:53.903Z,14.00
2023-03-30T03:08:24.774Z,14.00
2023-03-30T03:10:51.868Z,14.00
2023-03-30T03:13:20.756Z,14.00
2023-03-30T03:15:49.531Z,13.90
2023-03-30T03:18:16.400Z,13.90
2023-03-30T03:20:43.349Z,13.90
2023-03-30T03:23:10.082Z,13.90
2023-03-30T03:25:37.205Z,13.90
2023-03-30T03:28:04.125Z,13.80
2023-03-30T03:30:30.847Z,13.80
2023-03-30T03:32:58.107Z,13.80
2023-03-30T03:35:24.952Z,13.80
2023-03-30T03:37:51.657Z,13.80
2023-03-30T03:40:18.537Z,13.80
2023-03-30T03:42:45.275Z,13.70
2023-03-30T03:45:12.288Z,13.70
2023-03-30T03:47:39.222Z,13.80
2023-03-30T03:50:09.739Z,13.80
2023-03-30T03:52:36.879Z,13.80
2023-03-30T03:55:04.424Z,13.80
2023-03-30T03:57:31.410Z,13.70
2023-03-30T03:59:59.940Z,13.80
2023-03-30T04:02:27.101Z,13.70
2023-03-30T04:04:54.037Z,13.70
2023-03-30T04:07:21.601Z,13.80
2023-03-30T04:09:48.378Z,13.90
2023-03-30T04:12:15.088Z,13.90
2023-03-30T04:14:41.793Z,13.90
2023-03-30T04:17:08.673Z,13.90
2023-03-30T04:19:36.189Z,13.80
2023-03-30T04:22:06.020Z,13.80
2023-03-30T04:24:35.630Z,13.80
2023-03-30T04:27:02.664Z,13.80
2023-03-30T04:29:29.993Z,13.80
2023-03-30T04:31:56.793Z,13.90
2023-03-30T04:34:23.594Z,13.80
2023-03-30T04:36:50.650Z,13.80
2023-03-30T04:39:18.353Z,13.80
2023-03-30T04:41:46.208Z,13.80
2023-03-30T04:44:13.056Z,13.70
2023-03-30T04:46:40.127Z,13.60
2023-03-30T04:49:06.920Z,13.60
2023-03-30T04:51:33.749Z,13.50
2023-03-30T04:54:02.588Z,13.50
2023-03-30T04:56:29.316Z,13.50
2023-03-30T04:58:56.246Z,13.40
2023-03-30T05:01:23.034Z,13.30
2023-03-30T05:03:49.862Z,13.20
2023-03-30T05:06:16.581Z,13.20
2023-03-30T05:08:43.285Z,13.10
2023-03-30T05:11:10.151Z,13.00
2023-03-30T05:13:36.894Z,12.90
2023-03-30T05:16:03.709Z,12.80
2023-03-30T05:18:30.561Z,12.70
2023-03-30T05:20:58.507Z,12.50
2023-03-30T05:23:25.776Z,12.40
2023-03-30T05:25:53.069Z,12.20
2023-03-30T05:28:19.848Z,12.10
2023-03-30T05:30:47.132Z,12.10
2023-03-30T05:33:13.894Z,12.00
2023-03-30T05:35:40.683Z,12.00
2023-03-30T05:38:07.742Z,11.90
2023-03-30T05:40:34.480Z,11.90
2023-03-30T05:43:01.481Z,11.80
2023-03-30T05:45:28.223Z,11.80
2023-03-30T05:47:54.983Z,11.80
2023-03-30T05:50:22.290Z,11.80
2023-03-30T05:52:49.504Z,11.80
2023-03-30T05:55:16.495Z,11.90
2023-03-30T05:57:43.255Z,11.80
2023-03-30T06:00:11.145Z,11.90
2023-03-30T06:02:37.919Z,11.90
2023-03-30T06:05:04.932Z,11.90
2023-03-30T06:07:31.715Z,12.00
2023-03-30T06:09:59.715Z,12.00
2023-03-30T06:12:26.678Z,12.00
2023-03-30T06:14:53.421Z,12.10
2023-03-30T06:17:20.570Z,12.20
2023-03-30T06:19:47.498Z,12.20
2023-03-30T06:22:14.477Z,12.30
2023-03-30T06:24:41.218Z,12.30
2023-03-30T06:27:08.359Z,12.20
2023-03-30T06:29:35.083Z,12.20
2023-03-30T06:32:03.708Z,12.40
2023-03-30T06:34:30.981Z,12.40
2023-03-30T06:36:58.229Z,12.50
2023-03-30T06:39:25.631Z,12.60
2023-03-30T06:41:52.422Z,12.60
2023-03-30T06:44:19.837Z,12.70
2023-03-30T06:46:47.075Z,12.80
2023-03-30T06:49:14.164Z,12.80
2023-03-30T06:51:41.966Z,12.90
2023-03-30T06:54:09.030Z,12.90
2023-03-30T06:56:35.742Z,12.90
2023-03-30T06:59:03.544Z,13.10
2023-03-30T07:01:30.315Z,13.10
2023-03-30T07:03:57.565Z,13.10
2023-03-30T07:06:24.515Z,13.10
2023-03-30T07:08:51.733Z,13.20
2023-03-30T07:11:18.414Z,13.20
2023-03-30T07:13:45.220Z,13.20
2023-03-30T07:16:11.963Z,13.20
2023-03-30T07:18:38.777Z,13.20
2023-03-30T07:21:06.064Z,13.20
2023-03-30T07:23:33.087Z,13.10
2023-03-30T07:25:59.933Z,13.00
2023-03-30T07:28:27.081Z,13.10
2023-03-30T07:30:53.984Z,13.10
2023-03-30T07:33:22.421Z,13.10
2023-03-30T07:35:50.171Z,13.20
2023-03-30T07:38:17.438Z,13.30
2023-03-30T07:40:44.252Z,13.30
2023-03-30T07:43:11.016Z,13.20
2023-03-30T07:45:37.827Z,13.20
2023-03-30T07:48:04.807Z,13.30
2023-03-30T07:50:31.637Z,13.30
2023-03-30T07:52:58.475Z,13.50
2023-03-30T07:55:25.269Z,13.50
2023-03-30T07:57:52.620Z,13.60
2023-03-30T08:00:20.845Z,13.60
2023-03-30T08:02:47.867Z,13.70
2023-03-30T08:05:15.662Z,13.70
2023-03-30T08:07:43.003Z,13.90
2023-03-30T08:10:10.254Z,13.80
2023-03-30T08:12:37.129Z,13.70
2023-03-30T08:15:04.603Z,13.70
2023-03-30T08:17:31.599Z,13.70
2023-03-30T08:37:22.656Z,13.40
2023-03-30T08:39:49.450Z,13.70
2023-03-30T08:43:01.383Z,13.80
2023-03-30T08:45:36.671Z,14.10
2023-03-30T08:48:06.534Z,14.00
2023-03-30T08:50:37.481Z,13.80
2023-03-30T08:53:07.044Z,13.60
2023-03-30T08:55:57.366Z,13.70
2023-03-30T08:58:30.465Z,13.70
2023-03-30T09:01:22.594Z,13.80
2023-03-30T09:04:17.136Z,14.30
2023-03-30T09:06:47.327Z,14.00
2023-03-30T09:09:18.709Z,14.00
2023-03-30T09:11:50.295Z,14.10
2023-03-30T09:14:35.297Z,14.00
2023-03-30T09:17:22.825Z,14.00
2023-03-30T09:19:55.343Z,13.80
2023-03-30T09:22:30.984Z,14.20
2023-03-30T09:24:59.521Z,14.20
2023-03-30T09:27:41.250Z,14.00
2023-03-30T09:30:21.081Z,14.10
2023-03-30T09:33:00.899Z,14.00
2023-03-30T09:35:37.109Z,14.00
2023-03-30T09:38:04.267Z,14.10
2023-03-30T09:41:06.627Z,14.30
2023-03-30T09:43:46.292Z,14.10
2023-03-30T09:46:15.237Z,14.40
2023-03-30T09:48:47.127Z,14.30
2023-03-30T09:51:25.525Z,14.30
2023-03-30T09:54:04.366Z,14.60
2023-03-30T09:56:47.686Z,14.80
2023-03-30T09:59:37.516Z,14.80
2023-03-30T10:02:18.750Z,14.60
2023-03-30T10:05:04.348Z,14.70
2023-03-30T10:07:32.643Z,14.80
2023-03-30T10:10:02.659Z,14.80
2023-03-30T10:12:30.940Z,14.50
2023-03-30T10:15:14.334Z,14.10
2023-03-30T10:17:41.755Z,13.50
2023-03-30T10:20:30.770Z,13.10
2023-03-30T10:23:03.209Z,12.80
2023-03-30T10:25:32.763Z,12.70
2023-03-30T10:28:06.297Z,12.80
2023-03-30T10:30:33.594Z,12.70
2023-03-30T10:33:02.546Z,12.60
2023-03-30T10:35:38.243Z,12.60
2023-03-30T10:38:07.869Z,12.60
2023-03-30T10:40:38.200Z,12.70
2023-03-30T10:43:13.373Z,13.30
2023-03-30T10:45:45.879Z,13.50
2023-03-30T10:48:27.783Z,13.90
2023-03-30T10:50:54.582Z,13.90
2023-03-30T10:53:59.726Z,14.00
2023-03-30T10:56:32.610Z,14.10
2023-03-30T10:59:27.743Z,14.20
2023-03-30T11:02:24.032Z,14.30
2023-03-30T11:05:01.030Z,14.50
2023-03-30T11:07:31.275Z,14.40
2023-03-30T11:10:12.165Z,14.50
2023-03-30T11:12:43.932Z,14.50
2023-03-30T11:15:17.928Z,14.40
2023-03-30T11:18:21.959Z,14.50
2023-03-30T11:20:54.766Z,15.00
2023-03-30T11:23:55.417Z,15.30
2023-03-30T11:26:39.556Z,15.80
2023-03-30T11:29:51.984Z,16.20
2023-03-30T11:32:35.732Z,16.30
2023-03-30T11:35:26.586Z,15.70
2023-03-30T11:38:09.577Z,15.40
2023-03-30T11:40:44.829Z,15.50
2023-03-30T11:43:19.232Z,15.80
2023-03-30T11:46:15.639Z,16.00
2023-03-30T11:48:44.948Z,15.70
2023-03-30T11:51:27.738Z,15.50
2023-03-30T11:54:39.685Z,15.60
2023-03-30T11:57:36.974Z,15.50
2023-03-30T12:00:09.705Z,15.30
2023-03-30T12:02:39.398Z,14.80
2023-03-30T12:05:35.557Z,14.60
2023-03-30T12:08:42.614Z,14.60
2023-03-30T12:11:12.168Z,15.10
2023-03-30T12:13:48.629Z,15.00
2023-03-30T12:16:29.127Z,15.10
2023-03-30T12:19:15.549Z,15.00
2023-03-30T12:21:54.066Z,15.10
2023-03-30T12:24:36.890Z,15.30
2023-03-30T12:27:06.178Z,15.30
2023-03-30T12:32:28.433Z,15.60
2023-03-30T12:34:57.532Z,15.70
2023-03-30T12:37:33.567Z,15.80
2023-03-30T12:40:09.183Z,15.90
2023-03-30T12:42:46.387Z,16.00
2023-03-30T12:45:34.522Z,16.20
2023-03-30T12:48:26.500Z,16.10
2023-03-30T12:51:10.028Z,16.00
2023-03-30T12:53:51.131Z,16.10
2023-03-30T12:56:31.459Z,16.00
2023-03-30T12:58:58.328Z,16.10
2023-03-30T13:01:32.004Z,15.90
2023-03-30T13:04:09.253Z,15.80
2023-03-30T13:06:39.230Z,15.40
2023-03-30T13:09:14.851Z,14.40
2023-03-30T13:11:56.579Z,14.30
2023-03-30T13:14:35.884Z,14.60
2023-03-30T13:17:15.985Z,14.60
2023-03-30T13:20:05.072Z,14.80
2023-03-30T13:22:36.388Z,15.00
2023-03-30T13:25:26.073Z,14.70
2023-03-30T13:27:58.791Z,14.90
2023-03-30T13:30:31.261Z,15.20
2023-03-30T13:33:19.348Z,15.60
2023-03-30T13:35:54.814Z,15.70
2023-03-30T13:38:47.573Z,15.80
2023-03-30T13:41:32.607Z,15.80
2023-03-30T13:44:10.731Z,16.00
2023-03-30T13:46:53.485Z,16.20
2023-03-30T13:50:00.622Z,16.00
2023-03-30T13:52:38.303Z,15.80
2023-03-30T13:55:16.100Z,15.80
2023-03-30T13:57:44.698Z,15.70
2023-03-30T14:00:28.553Z,16.30
2023-03-30T14:02:55.467Z,16.10
2023-03-30T14:05:25.137Z,16.20
2023-03-30T14:07:59.457Z,16.10
2023-03-30T14:10:27.381Z,16.20
2023-03-30T14:12:56.661Z,16.70
2023-03-30T14:15:35.177Z,16.90
2023-03-30T14:18:05.424Z,16.70
2023-03-30T14:20:38.394Z,16.60
2023-03-30T14:23:06.073Z,16.60
2023-03-30T14:25:38.345Z,16.40
2023-03-30T14:28:16.937Z,16.00
2023-03-30T14:30:58.791Z,15.90
2023-03-30T14:33:26.397Z,16.00
2023-03-30T14:35:59.249Z,15.80
2023-03-30T14:38:37.697Z,15.80
2023-03-30T14:41:13.747Z,15.80
2023-03-30T14:43:41.240Z,15.70
2023-03-30T14:46:11.703Z,15.80
2023-03-30T14:48:43.117Z,15.70
2023-03-30T14:51:34.228Z,16.00
2023-03-30T14:54:02.233Z,16.20
2023-03-30T14:56:29.788Z,15.90
2023-03-30T14:58:57.398Z,16.10
2023-03-30T15:01:32.246Z,16.10
2023-03-30T15:04:10.414Z,16.00
2023-03-30T15:06:38.736Z,15.90
2023-03-30T15:09:14.262Z,15.80
2023-03-30T15:11:41.424Z,16.00
2023-03-30T15:14:13.494Z,15.90
2023-03-30T15:16:40.835Z,15.60
2023-03-30T15:19:30.576Z,15.70
2023-03-30T15:22:03.125Z,15.70
2023-03-30T15:24:35.670Z,15.60
2023-03-30T15:27:08.561Z,15.50
2023-03-30T15:29:35.425Z,15.60
2023-03-30T15:32:15.197Z,15.90
2023-03-30T15:35:18.685Z,15.90
2023-03-30T15:38:13.387Z,15.80
2023-03-30T15:40:45.342Z,15.90
2023-03-30T15:43:25.196Z,15.60
2023-03-30T15:46:05.039Z,15.60
2023-03-30T15:48:41.473Z,15.50
2023-03-30T15:51:14.467Z,15.40
2023-03-30T15:53:43.177Z,15.40
2023-03-30T15:56:17.286Z,15.40
2023-03-30T15:58:44.345Z,15.40
2023-03-30T16:01:16.962Z,15.40
2023-03-30T16:03:56.713Z,15.30
2023-03-30T16:06:24.021Z,15.20
2023-03-30T16:08:51.160Z,15.20
2023-03-30T16:11:18.740Z,15.20
2023-03-30T16:13:47.839Z,15.20
2023-03-30T16:16:15.956Z,15.20
2023-03-30T16:18:43.002Z,15.20
2023-03-30T16:21:11.001Z,15.20
2023-03-30T16:23:38.573Z,15.30
2023-03-30T16:26:08.067Z,15.30
2023-03-30T16:28:35.315Z,15.60
2023-03-30T16:31:10.079Z,15.60
2023-03-30T16:33:36.934Z,15.50
2023-03-30T16:36:03.953Z,15.30
2023-03-30T16:38:30.785Z,15.30
2023-03-30T16:40:59.952Z,15.30
2023-03-30T16:43:27.381Z,15.50
2023-03-30T16:45:54.335Z,15.70
2023-03-30T16:48:21.903Z,15.70
2023-03-30T16:50:58.033Z,15.70
2023-03-30T16:53:24.938Z,15.50
2023-03-30T16:55:51.762Z,15.50
2023-03-30T16:58:18.590Z,15.30
2023-03-30T17:00:50.936Z,15.30
2023-03-30T17:03:19.255Z,15.10
2023-03-30T17:05:48.401Z,15.00
2023-03-30T17:08:23.653Z,15.00
2023-03-30T17:10:52.427Z,15.00
2023-03-30T17:13:19.580Z,15.00
2023-03-30T17:15:46.742Z,15.00
2023-03-30T17:18:20.122Z,15.00
2023-03-30T17:20:52.123Z,15.00
2023-03-30T17:23:20.152Z,15.00
2023-03-30T17:25:49.331Z,14.90
2023-03-30T17:28:25.250Z,14.90
2023-03-30T17:30:54.510Z,14.90
2023-03-30T17:33:21.657Z,14.90
2023-03-30T17:35:54.332Z,14.90
2023-03-30T17:38:21.893Z,14.80
2023-03-30T17:40:49.492Z,14.90
2023-03-30T17:43:16.473Z,14.80
2023-03-30T17:45:44.274Z,14.80
2023-03-30T17:48:13.523Z,14.70
2023-03-30T17:50:43.648Z,14.60
2023-03-30T17:53:15.297Z,14.60
2023-03-30T17:55:42.523Z,14.50
2023-03-30T17:58:34.183Z,14.40
2023-03-30T18:01:03.513Z,14.40
2023-03-30T18:03:31.471Z,14.30
2023-03-30T18:06:00.466Z,14.30
2023-03-30T18:08:28.544Z,14.20
2023-03-30T18:10:59.460Z,14.20
2023-03-30T18:13:27.747Z,14.10
2023-03-30T18:15:56.669Z,14.10
2023-03-30T18:18:26.327Z,14.10
2023-03-30T18:20:54.268Z,14.10
2023-03-30T18:23:21.977Z,14.00
2023-03-30T18:25:49.439Z,14.00
2023-03-30T18:28:17.703Z,14.00
2023-03-30T18:30:45.103Z,14.00
2023-03-30T18:33:12.273Z,13.90
2023-03-30T18:35:39.316Z,13.90
2023-03-30T18:38:06.788Z,13.80
2023-03-30T18:40:37.363Z,13.80
2023-03-30T18:43:04.986Z,13.70
2023-03-30T18:45:31.900Z,13.60
2023-03-30T18:47:59.906Z,13.60
2023-03-30T18:50:41.506Z,13.60
2023-03-30T18:53:16.678Z,13.60
2023-03-30T18:55:46.033Z,13.50
2023-03-30T18:58:21.200Z,13.50
2023-03-30T19:00:49.704Z,13.50
2023-03-30T19:03:17.113Z,13.50
2023-03-30T19:05:45.032Z,13.50
2023-03-30T19:08:13.771Z,13.50
2023-03-30T19:10:42.515Z,13.50
2023-03-30T19:13:13.392Z,13.50
2023-03-30T19:15:40.750Z,13.40
2023-03-30T19:18:08.509Z,13.30
2023-03-30T19:20:39.675Z,13.20
2023-03-30T19:23:07.559Z,13.20
2023-03-30T19:25:34.420Z,13.20
2023-03-30T19:28:03.869Z,13.20
2023-03-30T19:30:33.721Z,13.10
2023-03-30T19:33:05.821Z,13.10
2023-03-30T19:35:33.812Z,13.00
2023-03-30T19:38:00.833Z,13.00
2023-03-30T19:40:27.987Z,13.00
2023-03-30T19:42:54.841Z,12.90
2023-03-30T19:45:23.661Z,12.80
2023-03-30T19:47:52.169Z,12.70
2023-03-30T19:50:20.597Z,12.70
2023-03-30T19:52:50.138Z,12.60
2023-03-30T19:55:19.653Z,12.60
2023-03-30T19:57:46.890Z,12.50
2023-03-30T20:00:16.195Z,12.50
2023-03-30T20:02:45.783Z,12.40
2023-03-30T20:05:13.343Z,12.40
2023-03-30T20:07:40.889Z,12.30
2023-03-30T20:10:09.867Z,12.30
2023-03-30T20:12:36.979Z,12.30
2023-03-30T20:15:06.189Z,12.30
2023-03-30T20:17:34.269Z,12.20
2023-03-30T20:20:07.100Z,12.20
2023-03-30T20:22:36.162Z,12.20
2023-03-30T20:25:04.853Z,12.20
2023-03-30T20:27:33.645Z,12.20
2023-03-30T20:30:01.614Z,12.20
2023-03-30T20:32:28.509Z,12.10
2023-03-30T20:34:55.316Z,12.10
2023-03-30T20:37:22.322Z,12.10
2023-03-30T20:39:52.132Z,12.00
2023-03-30T20:42:26.023Z,12.00
2023-03-30T20:44:53.548Z,12.00
2023-03-30T20:47:26.141Z,12.00
2023-03-30T20:49:55.828Z,12.00
2023-03-30T20:52:23.962Z,11.90
2023-03-30T20:54:52.507Z,11.90
2023-03-30T20:57:20.827Z,11.90
2023-03-30T20:59:48.189Z,11.90
2023-03-30T21:02:16.377Z,11.80
2023-03-30T21:04:44.307Z,11.80
2023-03-30T21:07:12.257Z,11.90
2023-03-30T21:09:39.461Z,11.80
2023-03-30T21:12:07.059Z,11.80
2023-03-30T21:14:33.939Z,11.70
2023-03-30T21:17:00.919Z,11.70
2023-03-30T21:19:27.750Z,11.60
2023-03-30T21:21:54.537Z,11.60
2023-03-30T21:24:21.476Z,11.60
2023-03-30T21:26:48.697Z,11.60
2023-03-30T21:29:15.612Z,11.60
2023-03-30T21:31:42.509Z,11.60
2023-03-30T21:34:10.811Z,11.60
2023-03-30T21:36:37.907Z,11.60
2023-03-30T21:39:04.912Z,11.60
2023-03-30T21:41:31.916Z,11.60
2023-03-30T21:43:58.819Z,11.70
2023-03-30T21:46:26.918Z,11.60
2023-03-30T21:48:54.600Z,11.60
2023-03-30T21:51:23.189Z,11.60
2023-03-30T21:53:52.279Z,11.70
2023-03-30T21:56:22.384Z,11.70
2023-03-30T21:58:49.976Z,11.70
2023-03-30T22:01:17.968Z,11.70
2023-03-30T22:03:46.102Z,11.70
2023-03-30T22:06:16.282Z,11.70
2023-03-30T22:08:45.512Z,11.80
2023-03-30T22:11:18.385Z,11.70
2023-03-30T22:13:47.577Z,11.70
2023-03-30T22:16:24.280Z,11.80
2023-03-30T22:18:51.913Z,11.80
2023-03-30T22:21:24.814Z,11.80
2023-03-30T22:23:52.985Z,11.80
2023-03-30T22:26:19.812Z,11.80
2023-03-30T22:28:47.063Z,11.80
2023-03-30T22:31:15.769Z,11.80
2023-03-30T22:33:42.953Z,11.70
2023-03-30T22:36:20.724Z,11.70
2023-03-30T22:38:49.732Z,11.70
2023-03-30T22:41:18.719Z,11.70
2023-03-30T22:43:46.927Z,11.60
2023-03-30T22:46:13.752Z,11.70
2023-03-30T22:48:41.597Z,11.60
2023-03-30T22:51:08.807Z,11.70
2023-03-30T22:53:35.777Z,11.70
2023-03-30T22:56:02.699Z,11.70
2023-03-30T22:58:29.840Z,11.70
2023-03-30T23:01:01.241Z,11.80
2023-03-30T23:03:28.543Z,11.70
2023-03-30T23:05:56.250Z,11.70
2023-03-30T23:08:24.301Z,11.70
2023-03-30T23:10:53.941Z,11.70
2023-03-30T23:13:20.707Z,11.70
2023-03-30T23:15:48.760Z,11.70
2023-03-30T23:18:16.144Z,11.70
2023-03-30T23:20:46.695Z,11.70
2023-03-30T23:23:14.864Z,11.60
2023-03-30T23:25:51.799Z,11.60
2023-03-30T23:28:19.216Z,11.60
2023-03-30T23:30:46.408Z,11.60
2023-03-30T23:33:13.638Z,11.60
2023-03-30T23:35:47.655Z,11.60
2023-03-30T23:38:14.496Z,11.60
2023-03-30T23:40:41.568Z,11.60
2023-03-30T23:43:08.452Z,11.60
2023-03-30T23:45:35.541Z,11.60
2023-03-30T23:48:02.691Z,11.70
2023-03-30T23:50:29.532Z,11.70
2023-03-30T23:52:56.359Z,11.70
2023-03-30T23:55:24.553Z,11.80
2023-03-30T23:57:51.496Z,11.80
